.
WxDataArchive / Data Records for 2015-05-05
2015-05-04 May 2015 2015-05-06

Data Records for Tuesday, 05 May 2015

Time	Temp	Chill	HIndex	Humid	Dewpt	 Wind 	HiWind	WindDir	Rain 	Barom
-----	----	-----	------	-----	-----	------	------	-------	-----	-----
00:00	62.3	62.3	62.3	89	59.0	0	0	---	0.00	30.155 
00:05	62.1	62.1	62.1	90	59.1	0	0	---	0.00	30.155 
00:10	62.1	62.1	62.1	90	59.1	0	0	---	0.00	30.155 
00:15	62.0	62.0	62.0	90	59.0	0	0	---	0.00	30.152 
00:20	61.8	61.8	61.8	90	58.8	0	0	---	0.00	30.152 
00:25	61.8	61.8	61.8	90	58.8	0	0	---	0.00	30.152 
00:30	61.6	61.6	61.6	90	58.6	0	0	---	0.00	30.153 
00:35	61.6	61.6	61.6	91	58.9	0	0	---	0.00	30.153 
00:40	61.5	61.5	61.5	91	58.8	0	0	---	0.00	30.153 
00:45	61.5	61.5	61.5	91	58.8	0	0	---	0.00	30.151 
00:50	61.5	61.5	61.5	92	59.2	0	0	---	0.00	30.151 
00:55	61.3	61.3	61.3	92	59.0	0	0	---	0.00	30.151 
01:00	61.3	61.3	61.3	92	59.0	0	0	---	0.00	30.154 
01:05	61.2	61.2	61.2	92	58.9	0	0	---	0.00	30.154 
01:10	61.2	61.2	61.2	92	58.9	0	0	---	0.00	30.154 
01:15	61.2	61.2	61.2	92	58.9	0	0	---	0.00	30.150 
01:20	61.0	61.0	61.0	92	58.7	0	0	---	0.00	30.150 
01:25	61.0	61.0	61.0	92	58.7	0	0	---	0.00	30.150 
01:30	61.0	61.0	61.0	92	58.7	0	0	---	0.00	30.154 
01:35	60.9	60.9	60.9	92	58.6	0	0	---	0.00	30.154 
01:40	61.0	61.0	61.0	92	58.7	0	0	---	0.00	30.154 
01:45	61.0	61.0	61.0	92	58.7	0	0	---	0.00	30.153 
01:50	61.0	61.0	61.0	92	58.7	0	0	---	0.00	30.153 
01:55	61.0	61.0	61.0	92	58.7	0	0	---	0.00	30.153 
02:00	61.0	61.0	61.0	93	59.0	0	0	---	0.00	30.152 
02:05	61.2	61.2	61.2	93	59.2	0	0	---	0.00	30.152 
02:10	61.0	61.0	61.0	93	59.0	0	0	---	0.00	30.152 
02:15	61.0	61.0	61.0	93	59.0	0	0	---	0.00	30.152 
02:20	61.0	61.0	61.0	93	59.0	0	0	---	0.00	30.152 
02:25	60.9	60.9	60.9	93	58.9	0	0	---	0.00	30.152 
02:30	60.7	60.7	60.7	93	58.7	0	0	---	0.00	30.152 
02:35	60.7	60.7	60.7	93	58.7	0	0	---	0.00	30.152 
02:40	60.7	60.7	60.7	93	58.7	0	0	---	0.00	30.152 
02:45	60.7	60.7	60.7	93	58.7	0	0	---	0.00	30.151 
02:50	60.7	60.7	60.7	93	58.7	0	0	---	0.00	30.151 
02:55	60.7	60.7	60.7	93	58.7	0	0	---	0.00	30.151 
03:00	60.7	60.7	60.7	93	58.7	0	0	---	0.00	30.148 
03:05	60.5	60.5	60.5	93	58.5	0	0	---	0.00	30.148 
03:10	60.2	60.2	60.2	93	58.2	0	0	---	0.00	30.148 
03:15	59.9	59.9	59.9	93	57.9	0	0	---	0.00	30.153 
03:20	59.8	59.8	59.8	93	57.8	0	0	---	0.00	30.153 
03:25	59.5	59.5	59.5	93	57.5	0	0	---	0.00	30.153 
03:30	59.3	59.3	59.3	93	57.3	0	0	---	0.00	30.154 
03:35	59.2	59.2	59.2	93	57.2	0	0	---	0.00	30.154 
03:40	59.0	59.0	59.0	94	57.3	0	0	---	0.00	30.154 
03:45	59.0	59.0	59.0	94	57.3	0	0	---	0.00	30.156 
03:50	58.9	58.9	58.9	94	57.2	0	0	---	0.00	30.156 
03:55	58.9	58.9	58.9	94	57.2	0	0	---	0.00	30.156 
04:00	58.7	58.7	58.7	94	57.0	0	0	---	0.00	30.155 
04:05	58.9	58.9	58.9	94	57.2	0	0	---	0.00	30.155 
04:10	59.0	59.0	59.0	94	57.3	0	0	---	0.00	30.155 
04:15	59.3	59.3	59.3	95	57.9	0	0	---	0.00	30.145 
04:20	59.6	59.6	59.6	95	58.2	0	0	---	0.00	30.145 
04:25	59.8	59.8	59.8	95	58.4	0	0	---	0.00	30.145 
04:30	59.8	59.8	59.8	94	58.1	0	0	---	0.00	30.155 
04:35	59.8	59.8	59.8	95	58.4	0	0	---	0.00	30.155 
04:40	59.9	59.9	59.9	95	58.5	1	3	248	0.00	30.155 
04:45	60.2	60.2	60.2	95	58.8	0	3	248	0.00	30.184 
04:50	60.4	60.4	60.4	95	59.0	0	0	---	0.00	30.184 
04:55	60.5	60.5	60.5	95	59.1	0	0	---	0.01	30.184 
05:00	60.5	60.5	60.5	95	59.1	0	0	---	0.00	30.171 
05:05	60.5	60.5	60.5	95	59.1	0	0	---	0.01	30.171 
05:10	60.5	60.5	60.5	95	59.1	0	0	---	0.00	30.171 
05:15	60.5	60.5	60.5	95	59.1	0	0	---	0.00	30.167 
05:20	60.5	60.5	60.5	95	59.1	0	0	---	0.00	30.167 
05:25	60.5	60.5	60.5	95	59.1	0	0	---	0.00	30.167 
05:30	60.5	60.5	60.5	95	59.1	0	0	---	0.00	30.168 
05:35	60.5	60.5	60.5	95	59.1	0	0	---	0.00	30.168 
05:40	60.5	60.5	60.5	95	59.1	0	0	---	0.00	30.168 
05:45	60.5	60.5	60.5	95	59.1	0	0	---	0.01	30.170 
05:50	60.5	60.5	60.5	95	59.1	0	0	---	0.02	30.170 
05:55	60.7	60.7	60.7	95	59.3	0	0	---	0.02	30.170 
06:00	60.7	60.7	60.7	95	59.3	0	0	---	0.01	30.171 
06:05	60.7	60.7	60.7	95	59.3	0	0	---	0.01	30.171 
06:10	60.5	60.5	60.5	95	59.1	0	0	---	0.00	30.171 
06:15	60.5	60.5	60.5	95	59.1	0	0	---	0.01	30.173 
06:20	60.5	60.5	60.5	95	59.1	0	0	---	0.01	30.173 
06:25	60.5	60.5	60.5	95	59.1	0	0	---	0.00	30.173 
06:30	60.5	60.5	60.5	95	59.1	0	0	---	0.00	30.169 
06:35	60.4	60.4	60.4	95	59.0	0	0	---	0.01	30.169 
06:40	60.4	60.4	60.4	95	59.0	0	0	---	0.01	30.169 
06:45	60.4	60.4	60.4	95	59.0	0	0	---	0.00	30.170 
06:50	60.4	60.4	60.4	95	59.0	0	0	---	0.01	30.170 
06:55	60.2	60.2	60.2	96	59.1	0	0	---	0.02	30.170 
07:00	60.2	60.2	60.2	95	58.8	0	0	---	0.01	30.184 
07:05	60.4	60.4	60.4	96	59.3	0	2	248	0.06	30.184 
07:10	60.4	60.4	60.4	96	59.3	0	0	---	0.03	30.184 
07:15	60.4	60.4	60.4	96	59.3	0	0	---	0.01	30.184 
07:20	60.4	60.4	60.4	96	59.3	0	0	---	0.02	30.184 
07:25	60.4	60.4	60.4	96	59.3	0	0	---	0.02	30.184 
07:30	60.4	60.4	60.4	96	59.3	0	0	---	0.00	30.184 
07:35	60.4	60.4	60.4	96	59.3	0	0	---	0.00	30.184 
07:40	60.5	60.5	60.5	96	59.4	0	0	---	0.00	30.184 
07:45	60.5	60.5	60.5	96	59.4	0	1	248	0.00	30.184 
07:50	60.7	60.7	60.7	96	59.6	0	0	---	0.00	30.184 
07:55	60.7	60.7	60.7	96	59.6	0	0	---	0.00	30.184 
08:00	60.7	60.7	60.7	96	59.6	0	0	---	0.00	30.187 
08:05	60.7	60.7	60.7	96	59.6	0	0	---	0.00	30.187 
08:10	60.7	60.7	60.7	96	59.6	0	0	---	0.00	30.187 
08:15	60.9	60.9	60.9	96	59.7	0	0	---	0.00	30.196 
08:20	60.9	60.9	60.9	96	59.7	0	1	248	0.00	30.196 
08:25	61.0	61.0	61.0	96	59.8	0	0	---	0.00	30.196 
08:30	61.0	61.0	61.0	96	59.8	0	0	---	0.00	30.198 
08:35	61.0	61.0	61.0	96	59.8	0	1	248	0.00	30.198 
08:40	60.9	60.9	60.9	96	59.7	0	1	248	0.00	30.198 
08:45	60.9	60.9	60.9	96	59.7	0	1	248	0.00	30.201 
08:50	60.9	60.9	60.9	96	59.7	0	0	---	0.00	30.201 
08:55	60.9	60.9	60.9	96	59.7	0	1	248	0.00	30.201 
09:00	60.7	60.7	60.7	96	59.6	0	1	248	0.01	30.204 
09:05	60.7	60.7	60.7	96	59.6	0	1	248	0.00	30.204 
09:10	60.7	60.7	60.7	96	59.6	0	0	---	0.00	30.204 
09:15	60.7	60.7	60.7	96	59.6	0	0	---	0.00	30.218 
09:20	60.7	60.7	60.7	96	59.6	0	0	---	0.00	30.218 
09:25	60.7	60.7	60.7	96	59.6	0	1	248	0.00	30.218 
09:30	60.7	60.7	60.7	96	59.6	0	0	---	0.00	30.219 
09:35	60.7	60.7	60.7	96	59.6	0	0	---	0.00	30.219 
09:40	60.9	60.9	60.9	96	59.7	0	0	---	0.00	30.219 
09:45	60.9	60.9	60.9	96	59.7	0	0	---	0.00	30.224 
09:50	60.9	60.9	60.9	96	59.7	0	0	---	0.01	30.224 
09:55	60.9	60.9	60.9	96	59.7	0	0	---	0.00	30.224 
10:00	61.0	61.0	61.0	96	59.8	0	0	---	0.00	30.225 
10:05	61.0	61.0	61.0	96	59.8	0	0	---	0.00	30.225 
10:10	61.2	61.2	61.2	96	60.0	0	2	248	0.00	30.225 
10:15	61.2	61.2	61.2	96	60.0	0	2	248	0.00	30.222 
10:20	61.2	61.2	61.2	96	60.0	1	4	112	0.02	30.222 
10:25	61.0	61.0	61.0	96	59.8	0	3	112	0.00	30.222 
10:30	61.0	61.0	61.0	96	59.8	0	2	112	0.01	30.220 
10:35	61.2	61.2	61.2	96	60.0	1	3	112	0.00	30.220 
10:40	61.2	61.2	61.2	96	60.0	1	4	45	0.00	30.220 
10:45	61.2	61.2	61.2	96	60.0	1	3	45	0.00	30.214 
10:50	61.3	61.3	61.3	96	60.1	1	4	45	0.00	30.214 
10:55	61.6	61.6	61.6	96	60.4	1	3	90	0.00	30.214 
11:00	61.8	61.8	61.8	96	60.6	1	3	90	0.00	30.217 
11:05	62.1	62.1	62.1	96	60.9	1	3	90	0.00	30.217 
11:10	62.1	62.1	62.1	97	61.2	1	4	68	0.00	30.217 
11:15	62.4	62.4	62.4	96	61.2	1	3	90	0.00	30.212 
11:20	62.6	62.6	62.6	96	61.4	1	3	90	0.00	30.212 
11:25	62.7	62.7	62.7	96	61.5	1	5	90	0.00	30.212 
11:30	62.7	62.7	62.7	96	61.5	1	4	90	0.00	30.205 
11:35	62.9	62.9	62.9	96	61.7	1	4	90	0.00	30.205 
11:40	62.9	62.9	62.9	96	61.7	1	3	135	0.00	30.205 
11:45	62.9	62.9	62.9	96	61.7	1	3	135	0.00	30.204 
11:50	63.1	63.1	63.1	96	61.9	1	6	112	0.00	30.204 
11:55	63.4	63.4	63.4	96	62.2	1	2	90	0.00	30.204 
12:00	63.7	63.7	63.7	96	62.5	1	3	90	0.00	30.203 
12:05	63.9	63.9	63.9	96	62.7	1	6	112	0.00	30.203 
12:10	64.0	64.0	64.0	96	62.8	1	3	90	0.00	30.203 
12:15	64.3	64.3	64.3	95	62.8	1	3	90	0.00	30.204 
12:20	64.7	64.7	64.7	95	63.2	0	2	90	0.00	30.204 
12:25	65.0	65.0	65.0	95	63.5	0	2	90	0.00	30.204 
12:30	65.3	65.3	65.3	95	63.8	0	4	90	0.00	30.201 
12:35	65.5	65.5	65.5	94	63.7	0	2	112	0.00	30.201 
12:40	66.3	66.3	66.3	94	64.5	0	1	112	0.00	30.201 
12:45	66.8	66.8	66.8	93	64.7	1	3	112	0.00	30.199 
12:50	67.1	67.1	67.1	92	64.7	0	3	112	0.00	30.199 
12:55	67.3	67.3	67.3	91	64.6	1	3	112	0.00	30.199 
13:00	67.8	67.8	67.8	89	64.4	0	1	112	0.00	30.199 
13:05	68.1	68.1	68.1	88	64.4	0	2	112	0.00	30.199 
13:10	68.4	68.4	68.4	86	64.0	1	4	112	0.00	30.199 
13:15	69.1	69.1	69.1	85	64.4	1	3	112	0.00	30.194 
13:20	69.6	69.6	69.6	82	63.9	1	4	112	0.00	30.194 
13:25	69.6	69.6	69.6	82	63.9	1	3	112	0.00	30.194 
13:30	69.9	69.9	69.9	82	64.1	0	2	112	0.00	30.193 
13:35	70.3	70.3	70.3	80	63.8	1	4	112	0.00	30.193 
13:40	70.3	70.3	70.3	79	63.5	2	5	112	0.00	30.193 
13:45	70.4	70.4	70.4	79	63.6	1	4	90	0.00	30.190 
13:50	70.8	70.8	70.8	79	64.0	2	6	90	0.00	30.190 
13:55	70.9	70.9	70.9	80	64.4	1	5	90	0.00	30.190 
14:00	71.6	71.6	71.6	79	64.7	1	5	90	0.00	30.182 
14:05	72.0	72.0	72.0	78	64.8	1	5	90	0.00	30.182 
14:10	72.1	72.1	72.1	79	65.2	1	5	22	0.00	30.182 
14:15	72.3	72.3	72.3	79	65.4	2	5	68	0.00	30.180 
14:20	72.1	72.1	72.1	78	64.8	1	4	90	0.00	30.180 
14:25	72.3	72.3	72.3	78	65.0	1	6	68	0.00	30.180 
14:30	72.1	72.1	72.1	78	64.8	1	5	112	0.00	30.180 
14:35	72.1	72.1	72.1	79	65.2	1	5	90	0.00	30.180 
14:40	72.5	72.5	72.5	78	65.2	2	5	90	0.00	30.180 
14:45	73.0	73.0	73.0	79	66.1	1	6	90	0.00	30.176 
14:50	73.0	73.0	73.0	77	65.3	2	6	90	0.00	30.176 
14:55	73.2	73.2	73.2	77	65.5	2	6	90	0.00	30.176 
15:00	73.5	73.5	73.5	77	65.8	1	4	112	0.00	30.170 
15:05	73.9	73.9	73.9	76	65.8	1	4	90	0.00	30.170 
15:10	74.2	74.2	74.2	74	65.4	2	5	90	0.00	30.170 
15:15	74.4	74.4	74.4	75	65.9	2	6	90	0.00	30.164 
15:20	74.7	74.7	74.7	75	66.2	1	4	90	0.00	30.164 
15:25	74.7	74.7	74.7	73	65.5	3	6	90	0.00	30.164 
15:30	74.9	74.9	74.9	74	66.0	2	5	90	0.00	30.162 
15:35	74.7	74.7	74.7	73	65.5	2	5	90	0.00	30.162 
15:40	74.9	74.9	74.9	75	66.4	1	3	90	0.00	30.162 
15:45	75.3	75.3	76.6	74	66.4	1	5	90	0.00	30.161 
15:50	74.9	74.9	74.9	75	66.4	2	7	112	0.00	30.161 
15:55	74.4	74.4	74.4	76	66.3	2	5	90	0.00	30.161 
16:00	74.0	74.0	74.0	76	65.9	2	6	90	0.00	30.157 
16:05	73.7	73.7	73.7	77	66.0	1	4	112	0.00	30.157 
16:10	73.5	73.5	73.5	77	65.8	2	7	90	0.00	30.157 
16:15	72.8	72.8	72.8	78	65.5	2	7	90	0.00	30.144 
16:20	72.1	72.1	72.1	77	64.5	1	5	90	0.00	30.144 
16:25	71.3	71.3	71.3	79	64.4	3	9	112	0.00	30.144 
16:30	70.4	70.4	70.4	80	63.9	1	6	112	0.00	30.143 
16:35	69.6	69.6	69.6	80	63.1	1	5	68	0.00	30.143 
16:40	68.9	68.9	68.9	82	63.2	2	6	90	0.00	30.143 
16:45	68.3	68.3	68.3	83	62.9	3	8	90	0.00	30.135 
16:50	67.6	67.6	67.6	84	62.6	2	6	90	0.00	30.135 
16:55	67.1	67.1	67.1	84	62.1	0	2	90	0.00	30.135 
17:00	66.9	66.9	66.9	84	61.9	0	3	90	0.00	30.149 
17:05	66.8	66.8	66.8	84	61.8	2	6	112	0.00	30.149 
17:10	66.8	66.8	66.8	84	61.8	0	3	90	0.00	30.149 
17:15	66.6	66.6	66.6	84	61.6	1	5	90	0.00	30.150 
17:20	66.3	66.3	66.3	84	61.3	1	4	90	0.00	30.150 
17:25	66.1	66.1	66.1	85	61.5	1	4	90	0.00	30.150 
17:30	65.6	65.6	65.6	84	60.6	1	3	90	0.00	30.147 
17:35	65.2	65.2	65.2	85	60.6	1	5	90	0.00	30.147 
17:40	65.0	65.0	65.0	85	60.4	1	5	112	0.00	30.147 
17:45	64.8	64.8	64.8	85	60.2	0	3	45	0.00	30.155 
17:50	64.5	64.5	64.5	86	60.2	1	3	68	0.00	30.155 
17:55	64.2	64.2	64.2	86	59.9	0	3	68	0.00	30.155 
18:00	63.9	63.9	63.9	87	59.9	1	4	45	0.00	30.173 
18:05	63.7	63.7	63.7	87	59.8	1	3	68	0.01	30.173 
18:10	63.4	63.4	63.4	88	59.8	1	3	68	0.01	30.173 
18:15	62.9	62.9	62.9	88	59.3	1	6	112	0.00	30.167 
18:20	62.3	62.3	62.3	89	59.0	1	5	112	0.00	30.167 
18:25	62.0	62.0	62.0	90	59.0	0	3	112	0.00	30.167 
18:30	61.6	61.6	61.6	90	58.6	1	4	112	0.00	30.168 
18:35	61.3	61.3	61.3	90	58.3	0	2	112	0.00	30.168 
18:40	61.0	61.0	61.0	90	58.0	1	3	112	0.00	30.168 
18:45	60.9	60.9	60.9	91	58.3	0	2	112	0.01	30.164 
18:50	60.5	60.5	60.5	91	57.9	2	9	90	0.00	30.164 
18:55	60.2	60.2	60.2	91	57.6	2	5	90	0.00	30.164 
19:00	59.8	59.8	59.8	91	57.2	1	4	90	0.01	30.162 
19:05	59.3	59.3	59.3	91	56.7	1	3	22	0.00	30.162 
19:10	59.2	59.2	59.2	92	56.9	1	5	68	0.01	30.162 
19:15	59.0	59.0	59.0	92	56.7	0	2	112	0.00	30.162 
19:20	59.0	59.0	59.0	92	56.7	1	7	112	0.00	30.162 
19:25	58.9	58.9	58.9	92	56.6	2	6	90	0.00	30.162 
19:30	58.7	58.7	58.7	92	56.4	1	5	90	0.00	30.159 
19:35	58.6	58.6	58.6	92	56.3	1	5	112	0.00	30.159 
19:40	58.4	58.4	58.4	92	56.1	1	6	90	0.00	30.159 
19:45	58.3	58.3	58.3	92	56.0	2	7	90	0.00	30.165 
19:50	58.1	58.1	58.1	92	55.8	1	3	90	0.00	30.165 
19:55	58.0	58.0	58.0	92	55.7	2	6	90	0.00	30.165 
20:00	57.8	57.8	57.8	92	55.5	1	6	90	0.00	30.170 
20:05	57.5	57.5	57.5	92	55.2	1	6	90	0.00	30.170 
20:10	57.3	57.3	57.3	92	55.0	1	5	90	0.00	30.170 
20:15	57.2	57.2	57.2	92	54.9	3	10	112	0.00	30.183 
20:20	56.9	56.9	56.9	92	54.6	2	6	90	0.00	30.183 
20:25	56.7	56.7	56.7	92	54.4	1	5	90	0.00	30.183 
20:30	56.6	56.6	56.6	92	54.3	1	7	112	0.00	30.190 
20:35	56.6	56.6	56.6	92	54.3	0	2	112	0.00	30.190 
20:40	56.5	56.5	56.5	92	54.2	1	4	90	0.00	30.190 
20:45	56.3	56.3	56.3	92	54.0	0	3	90	0.00	30.204 
20:50	56.2	56.2	56.2	92	53.9	1	7	90	0.00	30.204 
20:55	56.0	56.0	56.0	92	53.7	2	6	90	0.00	30.204 
21:00	55.9	55.9	55.9	92	53.6	1	5	90	0.00	30.200 
21:05	55.9	55.9	55.9	92	53.6	2	5	90	0.00	30.200 
21:10	55.9	55.9	55.9	92	53.6	1	7	90	0.00	30.200 
21:15	55.7	55.7	55.7	92	53.4	2	5	90	0.00	30.197 
21:20	55.6	55.6	55.6	88	52.1	2	5	90	0.00	30.197 
21:25	55.4	55.4	55.4	92	53.1	2	6	112	0.00	30.197 
21:30	55.1	55.1	55.1	92	52.8	3	10	112	0.00	30.196 
21:35	55.0	55.0	55.0	92	52.7	2	7	90	0.00	30.196 
21:40	54.8	54.8	54.8	92	52.5	2	5	90	0.00	30.196 
21:45	54.7	54.7	54.7	92	52.4	2	6	90	0.00	30.197 
21:50	54.7	54.7	54.7	92	52.4	2	4	90	0.00	30.197 
21:55	54.5	54.5	54.5	92	52.2	2	4	90	0.00	30.197 
22:00	54.5	54.5	54.5	92	52.2	2	4	112	0.00	30.197 
22:05	54.4	54.4	54.4	92	52.1	2	5	112	0.00	30.197 
22:10	54.4	54.4	54.4	92	52.1	1	3	90	0.00	30.197 
22:15	54.4	54.4	54.4	92	52.1	1	4	90	0.00	30.200 
22:20	54.2	54.2	54.2	92	51.9	1	5	90	0.00	30.200 
22:25	54.2	54.2	54.2	92	51.9	0	3	90	0.00	30.200 
22:30	54.2	54.2	54.2	92	51.9	1	5	90	0.00	30.208 
22:35	54.2	54.2	54.2	92	51.9	1	4	90	0.00	30.208 
22:40	54.2	54.2	54.2	92	51.9	1	4	90	0.00	30.208 
22:45	54.2	54.2	54.2	92	51.9	1	3	90	0.00	30.208 
22:50	54.1	54.1	54.1	92	51.8	1	3	90	0.00	30.208 
22:55	54.1	54.1	54.1	92	51.8	1	3	90	0.00	30.208 
23:00	54.1	54.1	54.1	92	51.8	1	4	90	0.00	30.207 
23:05	54.1	54.1	54.1	92	51.8	0	2	90	0.00	30.207 
23:10	53.9	53.9	53.9	93	51.9	1	3	90	0.00	30.207 
23:15	53.9	53.9	53.9	93	51.9	1	4	90	0.00	30.200 
23:20	53.9	53.9	53.9	93	51.9	1	4	90	0.00	30.200 
23:25	53.9	53.9	53.9	93	51.9	1	3	90	0.00	30.200 
23:30	53.9	53.9	53.9	93	51.9	1	3	90	0.00	30.205 
23:35	53.9	53.9	53.9	93	51.9	0	2	90	0.00	30.205 
23:40	53.9	53.9	53.9	93	51.9	1	3	90	0.00	30.205 
23:45	53.9	53.9	53.9	93	51.9	0	3	90	0.00	30.209 
23:50	53.9	53.9	53.9	93	51.9	0	2	90	0.00	30.209 
23:55	53.9	53.9	53.9	93	51.9	0	1	90	0.00	30.209 

CoCoRaHS
IN-AL-39
A2 Web Hosting
Creative Commons License
GoDaddy
search engine by freefind advanced

loaded 2018-11-20 06:16:36 • last modified 2010-11-18 10:43:29
Privacy PolicyDisclaimer
• wx.awcolley.com is powered by PmWiki v.2002016 •
• all content (unless otherwise noted) © 2018 A W Colley